createdAt,value
2019-04-11T00:01:58.602Z,100.00
2019-04-11T00:04:30.364Z,100.00
2019-04-11T00:07:01.749Z,100.00
2019-04-11T00:09:52.545Z,100.00
2019-04-11T00:12:24.317Z,100.00
2019-04-11T00:14:55.975Z,100.00
2019-04-11T00:17:28.062Z,100.00
2019-04-11T00:20:00.218Z,100.00
2019-04-11T00:22:31.668Z,100.00
2019-04-11T00:25:03.197Z,100.00
2019-04-11T00:27:35.114Z,100.00
2019-04-11T00:30:10.100Z,100.00
2019-04-11T00:32:41.686Z,100.00
2019-04-11T00:35:13.480Z,100.00
2019-04-11T00:37:45.458Z,100.00
2019-04-11T00:40:18.836Z,100.00
2019-04-11T00:42:51.159Z,100.00
2019-04-11T00:45:24.820Z,100.00
2019-04-11T00:47:57.465Z,100.00
2019-04-11T00:50:31.525Z,100.00
2019-04-11T00:53:03.563Z,100.00
2019-04-11T00:55:36.169Z,100.00
2019-04-11T00:58:07.558Z,100.00
2019-04-11T01:00:39.853Z,100.00
2019-04-11T01:03:11.754Z,100.00
2019-04-11T01:05:43.263Z,100.00
2019-04-11T01:08:15.652Z,100.00
2019-04-11T01:10:47.805Z,100.00
2019-04-11T01:13:19.379Z,100.00
2019-04-11T01:16:03.101Z,100.00
2019-04-11T01:18:34.380Z,100.00
2019-04-11T01:21:06.254Z,100.00
2019-04-11T01:23:37.827Z,100.00
2019-04-11T01:26:09.342Z,100.00
2019-04-11T01:28:40.782Z,100.00
2019-04-11T01:31:13.513Z,100.00
2019-04-11T01:33:46.245Z,100.00
2019-04-11T01:36:18.544Z,100.00
2019-04-11T01:38:54.733Z,100.00
2019-04-11T01:41:26.705Z,100.00
2019-04-11T01:44:02.205Z,100.00
2019-04-11T01:46:31.954Z,100.00
2019-04-11T01:49:10.184Z,100.00
2019-04-11T01:51:42.176Z,100.00
2019-04-11T01:54:13.840Z,100.00
2019-04-11T01:56:45.714Z,100.00
2019-04-11T01:59:17.416Z,100.00
2019-04-11T02:02:07.532Z,100.00
2019-04-11T02:04:52.299Z,100.00
2019-04-11T02:07:24.730Z,100.00
2019-04-11T02:09:56.772Z,100.00
2019-04-11T02:12:29.032Z,100.00
2019-04-11T02:15:00.405Z,100.00
2019-04-11T02:17:32.580Z,100.00
2019-04-11T02:20:06.980Z,100.00
2019-04-11T02:22:57.146Z,100.00
2019-04-11T02:25:47.291Z,100.00
2019-04-11T02:28:20.289Z,100.00
2019-04-11T02:30:55.711Z,100.00
2019-04-11T02:33:27.149Z,100.00
2019-04-11T02:35:58.574Z,100.00
2019-04-11T02:38:30.501Z,100.00
2019-04-11T02:41:03.503Z,100.00
2019-04-11T02:43:38.205Z,100.00
2019-04-11T02:46:19.857Z,100.00
2019-04-11T02:48:42.650Z,100.00
2019-04-11T02:51:15.047Z,100.00
2019-04-11T02:53:47.237Z,100.00
2019-04-11T02:56:19.330Z,100.00
2019-04-11T02:58:52.273Z,100.00
2019-04-11T03:01:26.124Z,100.00
2019-04-11T03:03:59.034Z,100.00
2019-04-11T03:06:30.999Z,100.00
2019-04-11T03:09:02.763Z,100.00
2019-04-11T03:11:34.685Z,100.00
2019-04-11T03:14:07.615Z,100.00
2019-04-11T03:16:53.449Z,100.00
2019-04-11T03:19:29.621Z,100.00
2019-04-11T03:21:47.274Z,100.00
2019-04-11T03:24:19.272Z,100.00
2019-04-11T03:26:52.622Z,100.00
2019-04-11T03:29:26.516Z,100.00
2019-04-11T03:32:51.288Z,100.00
2019-04-11T03:35:20.926Z,100.00
2019-04-11T03:37:26.080Z,100.00
2019-04-11T03:39:57.443Z,100.00
2019-04-11T03:42:29.615Z,100.00
2019-04-11T03:44:50.195Z,100.00
2019-04-11T03:47:34.814Z,100.00
2019-04-11T03:50:05.515Z,100.00
2019-04-11T03:52:30.539Z,100.00
2019-04-11T03:55:05.927Z,100.00
2019-04-11T03:57:39.660Z,100.00
2019-04-11T04:00:14.245Z,100.00
2019-04-11T04:02:55.279Z,100.00
2019-04-11T04:05:30.152Z,100.00
2019-04-11T04:08:06.112Z,100.00
2019-04-11T04:10:39.640Z,100.00
2019-04-11T04:13:16.933Z,100.00
2019-04-11T04:16:19.757Z,100.00
2019-04-11T04:18:58.798Z,100.00
2019-04-11T04:21:51.130Z,100.00
2019-04-11T04:24:32.790Z,100.00
2019-04-11T04:27:05.200Z,100.00
2019-04-11T04:29:38.111Z,100.00
2019-04-11T04:32:12.158Z,100.00
2019-04-11T04:34:48.105Z,100.00
2019-04-11T04:37:26.736Z,100.00
2019-04-11T04:40:23.827Z,100.00
2019-04-11T04:42:49.896Z,100.00
2019-04-11T04:45:21.442Z,100.00
2019-04-11T04:47:59.223Z,100.00
2019-04-11T04:50:30.947Z,100.00
2019-04-11T04:53:05.304Z,100.00
2019-04-11T04:55:41.221Z,100.00
2019-04-11T04:58:15.773Z,100.00
2019-04-11T05:00:53.800Z,100.00
2019-04-11T05:03:29.793Z,100.00
2019-04-11T05:06:11.990Z,100.00
2019-04-11T05:08:49.198Z,100.00
2019-04-11T05:11:23.971Z,100.00
2019-04-11T05:14:00.750Z,100.00
2019-04-11T05:16:37.553Z,100.00
2019-04-11T05:19:13.312Z,100.00
2019-04-11T05:21:47.852Z,100.00
2019-04-11T05:24:24.177Z,100.00
2019-04-11T05:26:57.852Z,100.00
2019-04-11T05:29:34.014Z,100.00
2019-04-11T05:32:07.668Z,100.00
2019-04-11T05:34:42.123Z,100.00
2019-04-11T05:37:17.156Z,100.00
2019-04-11T05:39:50.539Z,100.00
2019-04-11T05:42:26.512Z,100.00
2019-04-11T05:44:59.257Z,100.00
2019-04-11T05:47:35.509Z,100.00
2019-04-11T05:50:28.356Z,100.00
2019-04-11T05:53:05.559Z,100.00
2019-04-11T05:55:45.789Z,100.00
2019-04-11T05:58:24.165Z,100.00
2019-04-11T06:01:14.472Z,100.00
2019-04-11T06:03:50.452Z,100.00
2019-04-11T06:06:42.934Z,100.00
2019-04-11T06:09:23.406Z,100.00
2019-04-11T06:12:03.335Z,100.00
2019-04-11T06:14:47.187Z,100.00
2019-04-11T06:17:23.798Z,100.00
2019-04-11T06:20:27.711Z,100.00
2019-04-11T06:23:19.322Z,100.00
2019-04-11T06:26:14.706Z,100.00
2019-04-11T06:28:49.460Z,100.00
2019-04-11T06:31:42.302Z,100.00
2019-04-11T06:34:17.652Z,100.00
2019-04-11T06:37:09.687Z,100.00
2019-04-11T06:39:56.695Z,100.00
2019-04-11T06:42:39.295Z,100.00
2019-04-11T06:45:31.427Z,100.00
2019-04-11T06:48:22.320Z,100.00
2019-04-11T06:51:17.882Z,100.00
2019-04-11T06:54:11.082Z,100.00
2019-04-11T06:56:48.234Z,100.00
2019-04-11T06:59:38.689Z,100.00
2019-04-11T07:02:19.723Z,100.00
2019-04-11T07:04:55.051Z,100.00
2019-04-11T07:07:34.245Z,100.00
2019-04-11T07:10:11.730Z,100.00
2019-04-11T07:13:12.294Z,100.00
2019-04-11T07:15:52.856Z,100.00
2019-04-11T07:18:35.851Z,100.00
2019-04-11T07:21:13.229Z,100.00
2019-04-11T07:24:05.384Z,100.00
2019-04-11T07:26:45.859Z,100.00
2019-04-11T07:29:51.952Z,100.00
2019-04-11T07:32:27.896Z,98.81
2019-04-11T07:35:19.299Z,98.55
2019-04-11T07:38:03.129Z,100.00
2019-04-11T07:41:06.607Z,97.10
2019-04-11T07:43:58.543Z,98.29
2019-04-11T07:46:45.165Z,98.96
2019-04-11T07:49:24.371Z,99.82
2019-04-11T07:52:02.722Z,100.00
2019-04-11T07:54:39.632Z,100.00
2019-04-11T07:57:22.660Z,100.00
2019-04-11T08:00:13.247Z,100.00
2019-04-11T08:03:10.158Z,100.00
2019-04-11T08:06:22.431Z,100.00
2019-04-11T08:09:13.189Z,100.00
2019-04-11T08:12:08.769Z,100.00
2019-04-11T08:14:59.837Z,100.00
2019-04-11T08:17:41.767Z,100.00
2019-04-11T08:20:37.848Z,100.00
2019-04-11T08:23:16.552Z,100.00
2019-04-11T08:26:16.510Z,98.09
2019-04-11T08:28:59.614Z,96.21
2019-04-11T08:31:54.856Z,93.36
2019-04-11T08:34:27.058Z,91.86
2019-04-11T08:37:27.481Z,92.08
2019-04-11T08:39:59.771Z,90.01
2019-04-11T08:42:50.885Z,88.82
2019-04-11T08:45:23.763Z,87.49
2019-04-11T08:47:58.607Z,86.26
2019-04-11T08:50:32.884Z,87.29
2019-04-11T08:53:22.138Z,85.41
2019-04-11T08:56:01.918Z,85.81
2019-04-11T08:59:04.926Z,83.20
2019-04-11T09:01:36.786Z,83.53
2019-04-11T09:04:23.989Z,81.55
2019-04-11T09:06:56.783Z,80.60
2019-04-11T09:09:47.382Z,77.36
2019-04-11T09:12:20.484Z,77.73
2019-04-11T09:15:10.765Z,74.90
2019-04-11T09:17:58.928Z,73.68
2019-04-11T09:20:40.258Z,75.29
2019-04-11T09:23:14.379Z,74.48
2019-04-11T09:26:03.927Z,70.90
2019-04-11T09:28:39.766Z,65.43
2019-04-11T09:31:33.781Z,56.94
2019-04-11T09:34:23.882Z,54.09
2019-04-11T09:37:17.655Z,51.87
2019-04-11T09:40:23.839Z,51.35
2019-04-11T09:43:24.373Z,49.94
2019-04-11T09:46:18.947Z,46.37
2019-04-11T09:49:27.020Z,47.62
2019-04-11T09:52:04.335Z,49.24
2019-04-11T09:55:04.500Z,56.03
2019-04-11T09:57:41.979Z,56.89
2019-04-11T10:00:43.112Z,59.32
2019-04-11T10:03:25.625Z,63.19
2019-04-11T10:06:15.906Z,68.02
2019-04-11T10:08:52.729Z,70.99
2019-04-11T10:11:56.781Z,71.83
2019-04-11T10:14:31.520Z,74.04
2019-04-11T10:17:24.517Z,75.04
2019-04-11T10:19:58.758Z,76.12
2019-04-11T10:22:49.036Z,76.99
2019-04-11T10:25:25.234Z,76.70
2019-04-11T10:28:31.440Z,72.80
2019-04-11T10:31:22.211Z,71.76
2019-04-11T10:34:13.193Z,70.24
2019-04-11T10:36:49.687Z,67.34
2019-04-11T10:39:55.458Z,65.60
2019-04-11T10:42:28.727Z,61.02
2019-04-11T10:45:20.669Z,61.79
2019-04-11T10:47:55.950Z,61.91
2019-04-11T10:50:45.129Z,63.77
2019-04-11T10:53:17.979Z,65.80
2019-04-11T10:56:08.640Z,66.17
2019-04-11T10:58:51.115Z,67.35
2019-04-11T11:01:42.209Z,67.57
2019-04-11T11:04:27.617Z,69.78
2019-04-11T11:07:13.116Z,67.80
2019-04-11T11:09:56.739Z,68.92
2019-04-11T11:12:43.623Z,70.24
2019-04-11T11:15:31.558Z,71.29
2019-04-11T11:18:49.110Z,68.62
2019-04-11T11:21:06.913Z,70.75
2019-04-11T11:23:56.940Z,64.40
2019-04-11T11:26:35.487Z,69.21
2019-04-11T11:29:45.333Z,62.48
2019-04-11T11:32:33.639Z,61.76
2019-04-11T11:35:37.593Z,63.77
2019-04-11T11:38:19.864Z,60.77
2019-04-11T11:41:10.504Z,60.37
2019-04-11T11:43:43.345Z,58.15
2019-04-11T11:46:40.422Z,57.42
2019-04-11T11:49:35.231Z,56.32
2019-04-11T11:52:09.567Z,56.16
2019-04-11T11:54:46.173Z,55.35
2019-04-11T11:57:40.338Z,54.15
2019-04-11T12:00:23.455Z,51.07
2019-04-11T12:03:05.311Z,49.87
2019-04-11T12:06:03.113Z,47.21
2019-04-11T12:09:00.349Z,49.46
2019-04-11T12:11:32.362Z,45.47
2019-04-11T12:14:43.443Z,47.68
2019-04-11T12:17:52.494Z,46.69
2019-04-11T12:20:31.330Z,40.70
2019-04-11T12:23:07.288Z,41.84
2019-04-11T12:25:47.147Z,37.64
2019-04-11T12:28:38.453Z,41.06
2019-04-11T12:31:11.355Z,38.21
2019-04-11T12:34:20.210Z,40.59
2019-04-11T12:36:53.319Z,38.42
2019-04-11T12:39:44.092Z,41.40
2019-04-11T12:42:25.675Z,42.12
2019-04-11T12:45:28.579Z,45.24
2019-04-11T12:48:01.978Z,47.09
2019-04-11T12:50:51.716Z,47.37
2019-04-11T12:53:34.124Z,47.51
2019-04-11T12:56:28.748Z,48.12
2019-04-11T12:59:03.588Z,45.54
2019-04-11T13:01:53.370Z,46.87
2019-04-11T13:04:50.413Z,47.01
2019-04-11T13:07:51.696Z,47.49
2019-04-11T13:10:26.732Z,53.04
2019-04-11T13:13:20.075Z,55.80
2019-04-11T13:16:12.205Z,50.61
2019-04-11T13:19:02.456Z,46.07
2019-04-11T13:21:57.436Z,47.46
2019-04-11T13:24:59.889Z,49.07
2019-04-11T13:27:39.227Z,49.53
2019-04-11T13:30:29.406Z,46.97
2019-04-11T13:33:04.561Z,46.71
2019-04-11T13:35:55.549Z,48.17
2019-04-11T13:38:46.559Z,47.41
2019-04-11T13:41:35.952Z,48.46
2019-04-11T13:44:15.140Z,48.29
2019-04-11T13:47:02.538Z,47.01
2019-04-11T13:49:48.749Z,52.81
2019-04-11T13:52:39.560Z,55.14
2019-04-11T13:55:32.062Z,56.83
2019-04-11T13:58:18.856Z,59.44
2019-04-11T14:01:01.985Z,57.69
2019-04-11T14:03:58.820Z,57.11
2019-04-11T14:06:40.829Z,52.26
2019-04-11T14:09:38.798Z,49.77
2019-04-11T14:12:15.136Z,47.98
2019-04-11T14:15:06.007Z,47.73
2019-04-11T14:17:52.358Z,48.05
2019-04-11T14:20:58.118Z,44.65
2019-04-11T14:23:37.960Z,50.69
2019-04-11T14:26:31.998Z,53.59
2019-04-11T14:29:19.017Z,63.77
2019-04-11T14:32:00.109Z,67.28
2019-04-11T14:34:45.099Z,69.84
2019-04-11T14:37:38.937Z,72.74
2019-04-11T14:40:41.952Z,75.35
2019-04-11T14:43:43.767Z,76.40
2019-04-11T14:46:36.546Z,72.63
2019-04-11T14:49:13.662Z,80.82
2019-04-11T14:52:25.324Z,82.70
2019-04-11T14:55:00.266Z,81.73
2019-04-11T14:57:55.907Z,85.09
2019-04-11T15:00:37.058Z,84.50
2019-04-11T15:03:36.663Z,84.34
2019-04-11T15:06:31.448Z,81.80
2019-04-11T15:09:28.862Z,82.10
2019-04-11T15:12:10.770Z,82.59
2019-04-11T15:15:20.367Z,82.29
2019-04-11T15:17:57.947Z,84.96
2019-04-11T15:20:54.688Z,85.58
2019-04-11T15:23:25.551Z,92.88
2019-04-11T15:26:16.361Z,96.57
2019-04-11T15:29:07.167Z,99.50
2019-04-11T15:32:06.832Z,100.00
2019-04-11T15:34:46.959Z,100.00
2019-04-11T15:37:36.406Z,100.00
2019-04-11T15:40:12.212Z,100.00
2019-04-11T15:43:05.994Z,100.00
2019-04-11T15:45:42.375Z,100.00
2019-04-11T15:48:40.313Z,100.00
2019-04-11T15:51:46.075Z,100.00
2019-04-11T15:54:43.141Z,100.00
2019-04-11T15:57:32.559Z,100.00
2019-04-11T16:00:27.081Z,100.00
2019-04-11T16:03:18.190Z,100.00
2019-04-11T16:06:11.726Z,100.00
2019-04-11T16:08:46.364Z,100.00
2019-04-11T16:11:52.510Z,100.00
2019-04-11T16:14:32.636Z,100.00
2019-04-11T16:17:36.069Z,100.00
2019-04-11T16:20:22.120Z,100.00
2019-04-11T16:23:18.788Z,100.00
2019-04-11T16:25:55.272Z,100.00
2019-04-11T16:28:56.720Z,100.00
2019-04-11T16:31:40.134Z,100.00
2019-04-11T16:34:55.756Z,100.00
2019-04-11T16:37:27.468Z,100.00
2019-04-11T16:40:29.242Z,100.00
2019-04-11T16:43:07.661Z,100.00
2019-04-11T16:45:57.424Z,100.00
2019-04-11T16:48:31.348Z,100.00
2019-04-11T16:51:05.808Z,100.00
2019-04-11T16:53:38.162Z,100.00
2019-04-11T16:56:12.801Z,100.00
2019-04-11T16:58:50.091Z,100.00
2019-04-11T17:01:23.855Z,100.00
2019-04-11T17:03:56.898Z,100.00
2019-04-11T17:06:45.725Z,100.00
2019-04-11T17:09:31.230Z,100.00
2019-04-11T17:12:03.484Z,100.00
2019-04-11T17:14:37.531Z,100.00
2019-04-11T17:17:15.327Z,100.00
2019-04-11T17:19:45.508Z,100.00
2019-04-11T17:22:18.888Z,100.00
2019-04-11T17:24:51.243Z,100.00
2019-04-11T17:27:23.716Z,100.00
2019-04-11T17:29:56.371Z,100.00
2019-04-11T17:32:28.757Z,100.00
2019-04-11T17:35:02.044Z,100.00
2019-04-11T17:37:34.907Z,100.00
2019-04-11T17:40:07.703Z,100.00
2019-04-11T17:42:39.590Z,100.00
2019-04-11T17:45:11.727Z,100.00
2019-04-11T17:47:44.812Z,100.00
2019-04-11T17:50:18.351Z,100.00
2019-04-11T17:52:50.333Z,100.00
2019-04-11T17:55:24.552Z,100.00
2019-04-11T17:57:57.662Z,100.00
2019-04-11T18:00:32.719Z,100.00
2019-04-11T18:03:05.902Z,100.00
2019-04-11T18:05:38.028Z,100.00
2019-04-11T18:08:10.061Z,100.00
2019-04-11T18:10:42.219Z,100.00
2019-04-11T18:13:14.046Z,100.00
2019-04-11T18:15:45.904Z,100.00
2019-04-11T18:18:17.747Z,100.00
2019-04-11T18:20:52.033Z,100.00
2019-04-11T18:23:24.398Z,100.00
2019-04-11T18:25:56.669Z,100.00
2019-04-11T18:28:29.823Z,100.00
2019-04-11T18:31:02.326Z,100.00
2019-04-11T18:33:36.603Z,100.00
2019-04-11T18:36:09.645Z,100.00
2019-04-11T18:38:41.777Z,100.00
2019-04-11T18:41:14.026Z,100.00
2019-04-11T18:43:47.126Z,100.00
2019-04-11T18:46:20.235Z,100.00
2019-04-11T18:48:54.885Z,100.00
2019-04-11T18:51:27.344Z,100.00
2019-04-11T18:53:59.388Z,100.00
2019-04-11T18:56:31.853Z,100.00
2019-04-11T18:59:04.379Z,100.00
2019-04-11T19:01:39.121Z,100.00
2019-04-11T19:04:12.011Z,100.00
2019-04-11T19:06:44.010Z,100.00
2019-04-11T19:09:22.102Z,100.00
2019-04-11T19:11:54.706Z,100.00
2019-04-11T19:14:31.836Z,100.00
2019-04-11T19:17:04.402Z,100.00
2019-04-11T19:19:48.701Z,100.00
2019-04-11T19:22:32.261Z,100.00
2019-04-11T19:24:54.372Z,100.00
2019-04-11T19:27:26.935Z,100.00
2019-04-11T19:30:02.556Z,100.00
2019-04-11T19:32:35.131Z,100.00
2019-04-11T19:35:17.228Z,100.00
2019-04-11T19:37:50.652Z,100.00
2019-04-11T19:40:30.340Z,100.00
2019-04-11T19:43:03.516Z,100.00
2019-04-11T19:45:40.905Z,100.00
2019-04-11T19:48:15.254Z,100.00
2019-04-11T19:50:47.817Z,100.00
2019-04-11T19:53:20.497Z,100.00
2019-04-11T19:56:18.841Z,100.00
2019-04-11T19:58:51.749Z,100.00
2019-04-11T20:01:25.863Z,100.00
2019-04-11T20:03:58.305Z,100.00
2019-04-11T20:06:32.350Z,100.00
2019-04-11T20:09:06.479Z,100.00
2019-04-11T20:11:39.109Z,100.00
2019-04-11T20:14:16.513Z,100.00
2019-04-11T20:16:51.945Z,100.00
2019-04-11T20:19:27.124Z,100.00
2019-04-11T20:21:59.171Z,100.00
2019-04-11T20:24:31.935Z,100.00
2019-04-11T20:27:04.746Z,100.00
2019-04-11T20:29:37.379Z,100.00
2019-04-11T20:32:12.978Z,100.00
2019-04-11T20:34:45.688Z,100.00
2019-04-11T20:37:18.203Z,100.00
2019-04-11T20:39:50.380Z,100.00
2019-04-11T20:42:26.667Z,100.00
2019-04-11T20:45:02.144Z,100.00
2019-04-11T20:47:43.194Z,100.00
2019-04-11T20:50:16.162Z,100.00
2019-04-11T20:52:54.478Z,100.00
2019-04-11T20:55:26.739Z,100.00
2019-04-11T20:58:09.816Z,100.00
2019-04-11T21:00:50.164Z,100.00
2019-04-11T21:03:14.722Z,100.00
2019-04-11T21:05:47.209Z,100.00
2019-04-11T21:08:22.046Z,100.00
2019-04-11T21:10:55.495Z,100.00
2019-04-11T21:13:30.641Z,100.00
2019-04-11T21:16:03.803Z,100.00
2019-04-11T21:18:42.121Z,100.00
2019-04-11T21:21:14.145Z,100.00
2019-04-11T21:23:52.107Z,100.00
2019-04-11T21:26:24.201Z,100.00
2019-04-11T21:29:00.291Z,100.00
2019-04-11T21:31:32.576Z,100.00
2019-04-11T21:34:12.030Z,100.00
2019-04-11T21:36:44.029Z,100.00
2019-04-11T21:39:25.223Z,100.00
2019-04-11T21:41:57.477Z,100.00
2019-04-11T21:44:37.114Z,100.00
2019-04-11T21:47:09.226Z,100.00
2019-04-11T21:49:48.460Z,100.00
2019-04-11T21:52:20.492Z,100.00
2019-04-11T21:54:55.462Z,100.00
2019-04-11T21:57:27.976Z,100.00
2019-04-11T22:00:14.260Z,100.00
2019-04-11T22:02:46.317Z,100.00
2019-04-11T22:05:18.179Z,100.00
2019-04-11T22:07:50.687Z,100.00
2019-04-11T22:10:30.371Z,100.00
2019-04-11T22:13:09.763Z,100.00
2019-04-11T22:15:42.536Z,100.00
2019-04-11T22:18:16.780Z,100.00
2019-04-11T22:20:48.786Z,100.00
2019-04-11T22:23:21.103Z,100.00
2019-04-11T22:25:56.031Z,100.00
2019-04-11T22:28:28.617Z,100.00
2019-04-11T22:31:09.867Z,100.00
2019-04-11T22:34:00.645Z,100.00
2019-04-11T22:36:33.652Z,100.00
2019-04-11T22:39:08.541Z,100.00
2019-04-11T22:41:41.375Z,100.00
2019-04-11T22:44:14.177Z,100.00
2019-04-11T22:46:47.030Z,100.00
2019-04-11T22:49:19.304Z,100.00
2019-04-11T22:51:51.804Z,100.00
2019-04-11T22:54:23.924Z,100.00
2019-04-11T22:56:56.169Z,100.00
2019-04-11T22:59:28.145Z,100.00
2019-04-11T23:02:16.866Z,100.00
2019-04-11T23:04:47.078Z,100.00
2019-04-11T23:07:22.787Z,100.00
2019-04-11T23:09:55.570Z,100.00
2019-04-11T23:12:30.370Z,100.00
2019-04-11T23:15:03.332Z,100.00
2019-04-11T23:17:39.413Z,100.00
2019-04-11T23:20:14.266Z,100.00
2019-04-11T23:22:56.429Z,100.00
2019-04-11T23:25:28.677Z,100.00
2019-04-11T23:28:00.462Z,100.00
2019-04-11T23:30:32.369Z,100.00
2019-04-11T23:33:10.108Z,100.00
2019-04-11T23:35:42.783Z,100.00
2019-04-11T23:38:23.859Z,100.00
2019-04-11T23:40:55.972Z,100.00
2019-04-11T23:43:30.764Z,100.00
2019-04-11T23:46:03.013Z,100.00
2019-04-11T23:48:38.950Z,100.00
2019-04-11T23:51:11.564Z,100.00
2019-04-11T23:53:49.617Z,100.00
2019-04-11T23:56:22.305Z,100.00
2019-04-11T23:59:01.841Z,100.00
